Time;durP1;ratioP1;P1;durP2;ratioP2;P2;SDS_P1;SDS_P2;PMS_P1;PMS_P2;Temp;Humidity;BMP_temperature;BMP_pressure;BME280_temperature;BME280_humidity;BME280_pressure;Samples;Min_cycle;Max_cycle;Signal;HPM_P1;HPM_P2
2024/05/08 00:00:58;;;;;;;3.40;3.20;;;14.70;72.50;;;;;;5423875;26;20485;-82
2024/05/08 00:03:26;;;;;;;3.40;3.13;;;14.60;71.50;;;;;;5416531;26;21053;-82
2024/05/08 00:05:56;;;;;;;3.27;3.07;;;14.60;71.30;;;;;;5408769;26;20481;-82
2024/05/08 00:08:25;;;;;;;4.17;3.40;;;14.60;72.00;;;;;;5421373;26;20480;-82
2024/05/08 00:10:53;;;;;;;3.80;3.60;;;14.50;71.30;;;;;;5414194;26;20591;-82
2024/05/08 00:13:21;;;;;;;3.53;3.20;;;14.50;72.20;;;;;;5420961;26;20595;-82
2024/05/08 00:15:50;;;;;;;3.80;3.57;;;14.60;71.70;;;;;;5424140;26;20533;-83
2024/05/08 00:18:21;;;;;;;3.63;3.43;;;14.60;71.90;;;;;;5423590;26;20479;-83
2024/05/08 00:20:49;;;;;;;3.80;3.30;;;14.50;73.40;;;;;;5423333;26;20551;-83
2024/05/08 00:23:18;;;;;;;3.90;3.60;;;14.40;73.10;;;;;;5408580;26;20482;-82
2024/05/08 00:25:46;;;;;;;3.50;3.20;;;14.40;73.40;;;;;;5421539;26;20545;-83
2024/05/08 00:28:14;;;;;;;3.33;3.10;;;14.30;73.40;;;;;;5423595;26;20476;-82
2024/05/08 00:30:43;;;;;;;3.47;3.27;;;14.30;73.30;;;;;;5405808;26;20596;-83
2024/05/08 00:33:14;;;;;;;3.83;3.00;;;14.30;73.50;;;;;;5424849;26;21058;-83
2024/05/08 00:35:45;;;;;;;3.20;3.10;;;14.40;73.30;;;;;;5423354;26;20454;-83
2024/05/08 00:38:14;;;;;;;3.20;2.90;;;14.50;72.80;;;;;;5422277;26;20597;-82
2024/05/08 00:40:43;;;;;;;3.43;3.13;;;14.40;73.10;;;;;;5409482;26;20568;-82
2024/05/08 00:43:14;;;;;;;3.97;3.67;;;14.50;73.50;;;;;;5422620;26;20582;-83
2024/05/08 00:45:43;;;;;;;5.60;3.30;;;14.40;73.10;;;;;;5408670;26;20467;-82
2024/05/08 00:48:13;;;;;;;4.20;3.47;;;14.40;72.50;;;;;;5407322;26;20961;-82
2024/05/08 00:50:41;;;;;;;3.90;3.50;;;14.40;72.60;;;;;;5421693;26;20477;-82
2024/05/08 00:53:14;;;;;;;3.30;3.10;;;14.30;74.60;;;;;;5424120;26;20590;-82
2024/05/08 00:55:44;;;;;;;3.37;3.07;;;14.30;75.40;;;;;;5442549;26;20534;-82
2024/05/08 00:58:14;;;;;;;4.27;2.90;;;14.20;76.00;;;;;;5479149;21;20498;-91
2024/05/08 01:00:43;;;;;;;3.30;3.10;;;14.20;76.70;;;;;;5458076;26;20553;-92
2024/05/08 01:03:12;;;;;;;3.27;3.07;;;14.20;77.30;;;;;;5462285;26;20478;-92
2024/05/08 01:05:41;;;;;;;3.47;3.27;;;14.10;77.50;;;;;;5443381;26;20519;-91
2024/05/08 01:08:13;;;;;;;3.40;3.10;;;14.10;77.60;;;;;;5437314;26;20494;-90
2024/05/08 01:10:41;;;;;;;3.50;3.30;;;14.30;78.60;;;;;;5436493;26;20488;-90
2024/05/08 01:13:14;;;;;;;3.57;3.33;;;14.10;78.60;;;;;;5423263;26;20482;-90
2024/05/08 01:15:43;;;;;;;3.63;3.43;;;13.90;79.10;;;;;;5421895;26;20594;-90
2024/05/08 01:18:12;;;;;;;3.07;2.97;;;13.90;79.60;;;;;;5433354;26;20984;-90
2024/05/08 01:20:41;;;;;;;3.70;3.20;;;13.80;79.30;;;;;;5420213;26;20484;-90
2024/05/08 01:23:12;;;;;;;4.50;4.10;;;14.20;80.00;;;;;;5419640;26;20622;-90
2024/05/08 01:25:41;;;;;;;3.77;3.47;;;13.80;79.20;;;;;;5426637;26;20613;-89
2024/05/08 01:28:09;;;;;;;3.63;3.33;;;13.80;79.40;;;;;;5441553;26;20499;-91
2024/05/08 01:30:38;;;;;;;3.93;3.73;;;13.80;80.00;;;;;;5435616;26;20467;-88
2024/05/08 01:33:07;;;;;;;3.17;2.97;;;13.70;80.20;;;;;;5426020;26;20505;-88
2024/05/08 01:35:36;;;;;;;3.70;3.50;;;13.70;80.50;;;;;;5420002;26;20496;-87
2024/05/08 01:38:04;;;;;;;3.40;3.20;;;13.60;81.10;;;;;;5420974;26;20625;-88
2024/05/08 01:40:35;;;;;;;3.37;3.17;;;13.60;82.40;;;;;;5434906;26;20611;-88
2024/05/08 01:43:04;;;;;;;3.30;3.10;;;13.50;83.90;;;;;;5451205;26;20559;-90
2024/05/08 01:45:33;;;;;;;2.87;2.77;;;13.50;83.30;;;;;;5451209;26;20984;-89
2024/05/08 01:48:01;;;;;;;3.07;2.90;;;13.70;83.70;;;;;;5426067;26;20562;-89
2024/05/08 01:50:29;;;;;;;3.40;3.20;;;13.40;83.60;;;;;;5434565;26;20536;-89
2024/05/08 01:52:58;;;;;;;4.90;4.37;;;13.50;84.10;;;;;;5446237;26;20980;-92
2024/05/08 01:55:26;;;;;;;4.30;3.47;;;13.50;84.00;;;;;;5418249;26;20591;-91
2024/05/08 01:57:57;;;;;;;3.70;3.50;;;13.40;83.30;;;;;;5419180;26;20483;-90
2024/05/08 02:00:26;;;;;;;4.10;3.67;;;13.40;83.60;;;;;;5432666;26;20585;-91
2024/05/08 02:02:54;;;;;;;3.70;3.50;;;13.30;83.80;;;;;;5450151;26;20939;-92
2024/05/08 02:05:23;;;;;;;3.63;3.37;;;13.30;84.50;;;;;;5454354;26;20478;-92
2024/05/08 02:07:52;;;;;;;3.30;3.10;;;13.30;84.80;;;;;;5450501;26;20486;-90
2024/05/08 02:10:20;;;;;;;5.00;4.03;;;13.60;85.90;;;;;;5441628;26;20565;-90
2024/05/08 02:12:49;;;;;;;3.77;3.47;;;13.70;86.40;;;;;;5440511;26;20526;-92
2024/05/08 02:15:21;;;;;;;3.60;3.40;;;13.30;86.60;;;;;;5419934;26;20583;-91
2024/05/08 02:17:49;;;;;;;3.40;3.20;;;13.20;87.20;;;;;;5434430;26;20471;-92
2024/05/08 02:20:17;;;;;;;3.40;3.20;;;13.20;87.30;;;;;;5435493;26;21011;-92
2024/05/08 02:22:46;;;;;;;3.83;3.53;;;13.20;87.20;;;;;;5450839;26;21146;-91
2024/05/08 02:25:14;;;;;;;4.00;3.67;;;13.20;87.40;;;;;;5443535;26;20616;-92
2024/05/08 02:27:43;;;;;;;4.03;3.73;;;13.00;89.00;;;;;;5450515;26;20496;-90
2024/05/08 02:30:11;;;;;;;4.03;3.73;;;13.00;89.40;;;;;;5438450;26;21253;-87
2024/05/08 02:32:42;;;;;;;3.67;3.47;;;13.00;89.80;;;;;;5431220;26;20496;-91
2024/05/08 02:35:11;;;;;;;3.80;3.50;;;13.00;89.90;;;;;;5427442;26;20476;-91
2024/05/08 02:37:40;;;;;;;3.60;3.40;;;13.40;90.20;;;;;;5445958;26;20557;-92
2024/05/08 02:40:09;;;;;;;3.47;3.27;;;13.00;90.00;;;;;;5428444;26;20583;-90
2024/05/08 02:42:38;;;;;;;3.70;3.50;;;13.00;89.60;;;;;;5438955;26;20607;-91
2024/05/08 02:45:07;;;;;;;3.27;3.07;;;13.00;89.20;;;;;;5459153;26;20559;-91
2024/05/08 02:47:36;;;;;;;3.93;3.60;;;13.00;88.90;;;;;;5453462;26;20582;-92
2024/05/08 02:50:07;;;;;;;4.03;3.20;;;13.20;89.10;;;;;;5425510;26;20595;-92
2024/05/08 02:52:36;;;;;;;3.93;3.63;;;13.10;88.80;;;;;;5435288;26;21053;-91
2024/05/08 02:55:05;;;;;;;3.50;3.30;;;13.10;88.60;;;;;;5429876;26;20459;-91
2024/05/08 02:57:33;;;;;;;5.90;3.70;;;13.20;89.10;;;;;;5432665;26;20482;-91
2024/05/08 03:00:02;;;;;;;3.83;3.53;;;13.10;89.40;;;;;;5447258;26;20516;-90
2024/05/08 03:02:32;;;;;;;4.47;4.07;;;13.10;85.50;;;;;;5457368;26;20522;-90
2024/05/08 03:05:01;;;;;;;5.03;3.90;;;13.00;87.00;;;;;;5463589;26;20540;-90
2024/05/08 03:07:32;;;;;;;4.67;4.27;;;12.90;88.50;;;;;;5460896;26;20470;-92
2024/05/08 03:10:00;;;;;;;3.23;3.03;;;12.80;90.90;;;;;;5440563;26;20487;-93
2024/05/08 03:12:30;;;;;;;4.87;4.43;;;13.00;91.00;;;;;;5440569;26;20488;-91
2024/05/08 03:14:59;;;;;;;4.00;3.80;;;13.30;88.80;;;;;;5436125;26;20522;-92
2024/05/08 03:17:27;;;;;;;3.73;3.53;;;13.00;86.90;;;;;;5453611;26;20608;-92
2024/05/08 03:19:55;;;;;;;4.90;4.50;;;12.90;85.10;;;;;;5429067;26;20522;-92
2024/05/08 03:22:24;;;;;;;4.07;3.77;;;13.00;84.30;;;;;;5457620;26;20587;-92
2024/05/08 03:24:55;;;;;;;11.27;5.03;;;13.00;83.40;;;;;;5441524;26;20595;-93
2024/05/08 03:27:23;;;;;;;6.10;5.57;;;13.00;83.60;;;;;;5427965;26;20613;-92
2024/05/08 03:29:52;;;;;;;5.73;5.33;;;13.00;83.60;;;;;;5444639;26;20493;-92
2024/05/08 03:32:20;;;;;;;6.80;6.10;;;13.10;84.90;;;;;;5439373;26;21033;-88
2024/05/08 03:34:49;;;;;;;6.97;6.13;;;13.10;85.40;;;;;;5438643;26;20591;-88
2024/05/08 03:37:17;;;;;;;7.10;6.33;;;13.20;85.00;;;;;;5433252;26;20486;-88
2024/05/08 03:39:45;;;;;;;6.77;6.17;;;13.20;85.20;;;;;;5446848;26;20924;-88
2024/05/08 03:42:16;;;;;;;7.07;6.40;;;13.10;84.60;;;;;;5441368;26;20486;-89
2024/05/08 03:44:45;;;;;;;7.27;6.60;;;13.10;84.00;;;;;;5437794;26;20476;-92
2024/05/08 03:47:13;;;;;;;14.83;7.30;;;13.50;84.00;;;;;;5441053;26;20543;-89
2024/05/08 03:49:42;;;;;;;7.37;6.67;;;13.10;83.50;;;;;;5430513;26;20479;-89
2024/05/08 03:52:11;;;;;;;8.13;7.33;;;13.20;83.20;;;;;;5437561;26;20493;-89
2024/05/08 03:54:39;;;;;;;8.77;7.90;;;13.10;82.80;;;;;;5427472;26;20574;-89
2024/05/08 03:57:07;;;;;;;8.63;7.80;;;13.20;83.20;;;;;;5425444;26;20570;-89
2024/05/08 03:59:40;;;;;;;8.50;7.23;;;13.20;83.40;;;;;;5435712;26;21041;-89
2024/05/08 04:02:11;;;;;;;7.40;6.70;;;13.10;83.20;;;;;;5448936;26;20497;-89
2024/05/08 04:04:39;;;;;;;7.90;7.13;;;13.10;83.30;;;;;;5432935;26;20540;-88
2024/05/08 04:07:07;;;;;;;8.20;7.43;;;13.00;83.60;;;;;;5433890;26;20545;-89
2024/05/08 04:09:36;;;;;;;6.93;6.30;;;13.00;84.20;;;;;;5446555;26;20610;-90
2024/05/08 04:12:05;;;;;;;7.10;6.50;;;13.00;84.70;;;;;;5433185;26;21486;-90
2024/05/08 04:14:33;;;;;;;5.90;5.40;;;13.00;84.90;;;;;;5428656;26;20527;-89
2024/05/08 04:17:04;;;;;;;5.57;5.17;;;13.00;85.00;;;;;;5431462;26;20487;-92
2024/05/08 04:19:33;;;;;;;6.50;4.63;;;13.00;85.90;;;;;;5426647;26;20610;-89
2024/05/08 04:22:01;;;;;;;5.10;4.60;;;13.00;86.10;;;;;;5441220;26;20481;-89
2024/05/08 04:24:30;;;;;;;4.27;3.87;;;13.00;86.80;;;;;;5450862;26;21042;-88
2024/05/08 04:26:58;;;;;;;4.23;3.73;;;13.00;88.40;;;;;;5432916;26;20535;-88
2024/05/08 04:29:27;;;;;;;4.47;4.17;;;13.30;89.10;;;;;;5445295;26;20599;-87
2024/05/08 04:31:55;;;;;;;4.17;3.87;;;13.00;89.20;;;;;;5439197;26;21326;-88
2024/05/08 04:34:26;;;;;;;4.60;3.90;;;13.00;89.20;;;;;;5447456;26;20626;-91
2024/05/08 04:36:55;;;;;;;4.70;4.20;;;13.20;89.40;;;;;;5440789;26;20498;-88
2024/05/08 04:39:23;;;;;;;4.60;4.20;;;12.90;89.10;;;;;;5433807;26;20522;-89
2024/05/08 04:41:51;;;;;;;4.90;4.50;;;13.00;89.50;;;;;;5436323;26;20488;-89
2024/05/08 04:44:20;;;;;;;5.60;4.47;;;12.90;89.50;;;;;;5446926;26;20587;-89
2024/05/08 04:46:48;;;;;;;4.60;4.20;;;12.90;89.70;;;;;;5434506;26;20971;-91
2024/05/08 04:49:17;;;;;;;4.37;4.10;;;12.90;90.00;;;;;;5426460;26;20534;-90
2024/05/08 04:51:48;;;;;;;5.33;3.93;;;12.90;89.80;;;;;;5444765;26;20478;-92
2024/05/08 04:54:16;;;;;;;4.10;3.90;;;13.20;90.10;;;;;;5440559;26;20569;-95
2024/05/08 04:56:45;;;;;;;6.20;4.13;;;13.00;90.00;;;;;;5438989;26;20591;-86
2024/05/08 04:59:13;;;;;;;4.73;4.30;;;12.90;89.60;;;;;;5423958;26;20620;-85
2024/05/08 05:01:42;;;;;;;4.63;4.33;;;12.90;90.00;;;;;;5425668;26;20587;-87
2024/05/08 05:04:10;;;;;;;5.50;5.00;;;12.90;90.00;;;;;;5435184;26;21006;-86
2024/05/08 05:06:38;;;;;;;4.80;4.40;;;12.90;89.90;;;;;;5437220;26;20943;-85
2024/05/08 05:09:11;;;;;;;5.03;4.60;;;12.90;90.00;;;;;;5432781;26;21167;-86
2024/05/08 05:11:40;;;;;;;5.07;4.67;;;13.00;90.70;;;;;;5435913;26;20511;-85
2024/05/08 05:14:08;;;;;;;4.07;3.87;;;13.10;90.50;;;;;;5430105;26;21111;-85
2024/05/08 05:16:37;;;;;;;4.63;4.23;;;13.10;90.50;;;;;;5426067;26;20567;-85
2024/05/08 05:19:05;;;;;;;5.97;4.97;;;13.10;90.30;;;;;;5434933;26;20597;-85
2024/05/08 05:21:33;;;;;;;4.70;4.40;;;13.20;90.30;;;;;;5435002;26;20476;-85
2024/05/08 05:24:02;;;;;;;4.67;4.27;;;13.20;90.20;;;;;;5441748;26;20537;-84
2024/05/08 05:26:34;;;;;;;5.10;4.70;;;13.20;90.30;;;;;;5435725;26;20553;-84
2024/05/08 05:29:03;;;;;;;5.23;4.73;;;13.20;90.40;;;;;;5434469;26;20519;-85
2024/05/08 05:34:16;;;;;;;5.13;4.73;;;13.20;90.30;;;;;;5425065;26;20597;-87
2024/05/08 05:36:44;;;;;;;7.77;5.07;;;13.10;90.30;;;;;;5435572;26;20487;-86
2024/05/08 05:39:12;;;;;;;4.77;4.47;;;13.20;90.60;;;;;;5433114;26;20624;-85
2024/05/08 05:45:46;;;;;;;5.10;4.50;;;13.20;90.90;;;;;;5423181;26;20603;-90
2024/05/08 05:47:17;;;;;;;4.40;4.13;;;13.30;91.10;;;;;;5432543;26;20517;-89
2024/05/08 05:49:45;;;;;;;4.57;4.17;;;13.60;91.20;;;;;;5426463;26;20652;-88
2024/05/08 05:52:14;;;;;;;4.53;4.20;;;13.70;91.30;;;;;;5427890;26;20484;-91
2024/05/08 05:54:42;;;;;;;4.63;4.23;;;13.50;91.10;;;;;;5423395;26;20586;-90
2024/05/08 05:57:14;;;;;;;5.57;5.03;;;13.90;91.30;;;;;;5426970;26;20471;-88
2024/05/08 05:59:42;;;;;;;5.20;4.90;;;13.60;91.10;;;;;;5441288;26;20552;-89
2024/05/08 06:02:11;;;;;;;5.00;4.60;;;13.60;91.00;;;;;;5432573;26;20464;-89
2024/05/08 06:04:39;;;;;;;4.97;4.47;;;13.70;91.00;;;;;;5442753;26;20463;-89
2024/05/08 06:07:08;;;;;;;4.30;4.00;;;13.80;90.90;;;;;;5434078;26;20558;-89
2024/05/08 06:09:37;;;;;;;5.00;4.60;;;13.80;90.90;;;;;;5433841;26;20601;-90
2024/05/08 06:12:06;;;;;;;4.97;4.57;;;13.90;91.00;;;;;;5425111;26;20646;-88
2024/05/08 06:14:37;;;;;;;4.43;4.13;;;13.90;91.00;;;;;;5435152;26;20467;-89
2024/05/08 06:17:05;;;;;;;4.27;3.97;;;14.20;91.20;;;;;;5439365;26;20524;-88
2024/05/08 06:19:37;;;;;;;4.20;3.90;;;14.00;91.10;;;;;;5440571;26;20460;-89
2024/05/08 06:22:05;;;;;;;4.27;3.97;;;14.10;91.10;;;;;;5426182;26;20475;-88
2024/05/08 06:24:34;;;;;;;5.00;4.57;;;14.10;91.00;;;;;;5438758;26;20465;-91
2024/05/08 06:27:02;;;;;;;4.80;4.40;;;14.20;91.00;;;;;;5436940;26;20584;-91
2024/05/08 06:29:31;;;;;;;4.70;4.33;;;14.60;91.30;;;;;;5434249;26;20585;-89
2024/05/08 06:32:02;;;;;;;4.23;3.90;;;14.30;91.20;;;;;;5430196;26;20464;-89
2024/05/08 06:34:30;;;;;;;4.60;4.10;;;14.20;91.30;;;;;;5422547;26;20936;-86
2024/05/08 06:36:59;;;;;;;4.60;4.20;;;14.30;91.00;;;;;;5433210;26;20479;-87
2024/05/08 06:39:27;;;;;;;5.30;4.10;;;14.40;91.00;;;;;;5450538;26;20479;-87
2024/05/08 06:41:56;;;;;;;5.57;4.33;;;14.40;91.10;;;;;;5419684;26;21107;-87
2024/05/08 06:44:25;;;;;;;3.77;3.50;;;14.70;91.40;;;;;;5419680;26;20612;-86
2024/05/08 06:46:53;;;;;;;4.30;4.00;;;14.50;91.40;;;;;;5428552;26;20474;-87
2024/05/08 06:49:24;;;;;;;4.50;4.20;;;14.50;91.70;;;;;;5446757;26;20484;-87
2024/05/08 06:51:53;;;;;;;4.27;3.87;;;14.60;91.60;;;;;;5419967;26;20637;-87
2024/05/08 06:54:21;;;;;;;5.10;4.60;;;14.80;91.60;;;;;;5449137;26;20951;-88
2024/05/08 07:12:23;;;;;;;5.73;4.80;;;15.40;91.10;;;;;;5476828;26;20460;-91
2024/05/08 07:14:51;;;;;;;5.00;4.50;;;15.90;90.80;;;;;;5478501;26;20459;-91
2024/05/08 07:17:19;;;;;;;5.00;4.60;;;15.80;90.60;;;;;;5481032;25;20467;-92
2024/05/08 07:19:49;;;;;;;6.90;4.33;;;16.00;90.60;;;;;;5455532;26;20564;-91
2024/05/08 07:22:17;;;;;;;5.40;4.90;;;16.40;90.60;;;;;;5469819;26;20528;-92
2024/05/08 07:24:46;;;;;;;4.20;3.90;;;16.30;89.50;;;;;;5442432;26;20497;-92
2024/05/08 07:27:15;;;;;;;5.10;4.43;;;16.50;89.60;;;;;;5442306;26;20461;-90
2024/05/08 07:29:46;;;;;;;5.20;4.43;;;16.80;90.20;;;;;;5464305;26;20464;-92
2024/05/08 07:32:15;;;;;;;4.40;4.10;;;17.20;89.10;;;;;;5478198;26;20450;-92
2024/05/08 07:34:46;;;;;;;3.83;3.53;;;17.20;88.60;;;;;;5478349;26;20456;-93
2024/05/08 07:37:18;;;;;;;4.43;4.13;;;17.40;87.50;;;;;;5478232;26;20501;-91
2024/05/08 07:39:52;;;;;;;4.63;4.17;;;17.60;86.10;;;;;;5444970;26;20476;-93
2024/05/08 07:42:38;;;;;;;4.30;4.00;;;17.70;85.20;;;;;;5450518;26;20453;-91
2024/05/08 07:52:12;;;;;;;3.83;3.53;;;18.50;84.20;;;;;;5404524;26;20445;-92
2024/05/08 07:54:40;;;;;;;6.77;4.80;;;18.80;85.40;;;;;;5417494;26;20464;-91
2024/05/08 07:57:09;;;;;;;5.07;4.57;;;19.20;85.70;;;;;;5462968;26;20527;-92
2024/05/08 07:59:38;;;;;;;3.97;3.30;;;19.30;84.80;;;;;;5465561;26;20465;-91
2024/05/08 08:02:06;;;;;;;3.83;3.63;;;19.90;85.30;;;;;;5475100;26;20511;-90
2024/05/08 08:04:38;;;;;;;4.07;3.63;;;20.10;83.10;;;;;;5473766;26;20457;-90
2024/05/08 08:07:07;;;;;;;3.80;3.40;;;20.50;81.40;;;;;;5474558;26;20462;-88
2024/05/08 08:09:36;;;;;;;3.80;3.50;;;21.20;81.50;;;;;;5469502;26;20494;-88
2024/05/08 08:12:05;;;;;;;3.77;3.47;;;21.70;79.10;;;;;;5463289;26;20461;-89
2024/05/08 08:14:34;;;;;;;3.37;3.07;;;22.40;77.90;;;;;;5458717;26;20493;-89
2024/05/08 08:17:03;;;;;;;3.77;3.47;;;23.30;78.10;;;;;;5458427;26;20522;-89
2024/05/08 08:19:32;;;;;;;3.13;2.93;;;24.30;76.20;;;;;;5459169;26;20492;-90
2024/05/08 08:22:03;;;;;;;3.90;3.27;;;25.30;73.20;;;;;;5458283;26;20457;-90
2024/05/08 08:24:32;;;;;;;3.50;2.90;;;;;;;;;;5458452;26;20449;-90
2024/05/08 08:27:01;;;;;;;3.30;2.90;;;27.30;52.30;;;;;;5458737;26;20471;-89
2024/05/08 08:29:30;;;;;;;2.70;2.50;;;28.30;49.40;;;;;;5459444;26;20961;-90
2024/05/08 08:31:59;;;;;;;2.73;2.53;;;29.00;47.60;;;;;;5431177;26;20642;-90
2024/05/08 08:34:28;;;;;;;5.40;2.67;;;29.70;45.50;;;;;;5458770;26;20508;-90
2024/05/08 08:36:57;;;;;;;3.53;2.57;;;30.40;44.30;;;;;;5458063;26;21044;-90
2024/05/08 08:39:28;;;;;;;3.80;3.33;;;31.20;43.20;;;;;;5449827;26;20484;-90
2024/05/08 08:42:00;;;;;;;2.67;2.47;;;32.00;40.90;;;;;;5458229;26;21048;-89
2024/05/08 08:44:30;;;;;;;4.37;2.40;;;32.80;39.10;;;;;;5459004;26;20453;-89
2024/05/08 08:47:02;;;;;;;3.27;2.97;;;33.30;37.80;;;;;;5460523;26;20591;-88
2024/05/08 08:49:31;;;;;;;2.87;2.70;;;34.00;36.50;;;;;;5462152;26;20464;-86
2024/05/08 08:52:02;;;;;;;2.40;2.27;;;34.60;36.90;;;;;;5459052;26;20457;-87
2024/05/08 08:54:34;;;;;;;2.50;2.30;;;35.00;34.80;;;;;;5459140;26;20782;-87
2024/05/08 08:57:03;;;;;;;2.47;2.27;;;;;;;;;;5438784;26;20618;-89
2024/05/08 08:59:36;;;;;;;2.27;2.10;;;36.10;30.90;;;;;;5422927;26;20553;-87
2024/05/08 09:02:11;;;;;;;3.07;2.50;;;36.70;30.30;;;;;;5424063;26;20461;-87
2024/05/08 09:04:50;;;;;;;3.10;2.33;;;37.10;29.80;;;;;;5624080;25;1201996;-89
2024/05/08 09:07:20;;;;;;;2.57;2.37;;;37.50;29.20;;;;;;5613737;25;20564;-89
2024/05/08 09:09:50;;;;;;;2.63;2.43;;;37.80;28.10;;;;;;5588050;25;20300;-89
2024/05/08 09:12:19;;;;;;;2.83;2.53;;;38.00;27.50;;;;;;5588225;25;20439;-89
2024/05/08 09:14:52;;;;;;;2.40;2.30;;;37.90;26.90;;;;;;5583855;25;20255;-88
2024/05/08 09:17:21;;;;;;;2.27;1.80;;;38.10;26.90;;;;;;5574142;20;20860;-88
2024/05/08 09:19:52;;;;;;;2.97;2.77;;;38.20;26.40;;;;;;5470813;26;20242;-88
2024/05/08 09:22:20;;;;;;;2.30;2.20;;;38.50;26.50;;;;;;5472647;26;20270;-87
2024/05/08 09:24:49;;;;;;;2.73;2.40;;;38.80;25.70;;;;;;5473300;26;20551;-88
2024/05/08 09:27:17;;;;;;;2.23;2.03;;;38.90;25.70;;;;;;5472491;26;20231;-88
2024/05/08 09:29:46;;;;;;;2.40;2.30;;;39.10;25.40;;;;;;5472348;26;20319;-89
2024/05/08 09:32:15;;;;;;;2.17;2.07;;;39.20;24.80;;;;;;5441771;26;20291;-88
2024/05/08 09:34:43;;;;;;;4.70;2.90;;;39.40;24.70;;;;;;5419323;26;20302;-89
2024/05/08 09:37:16;;;;;;;2.67;2.43;;;39.20;24.00;;;;;;5426714;26;20280;-88
2024/05/08 09:39:45;;;;;;;5.10;2.60;;;39.30;24.50;;;;;;5435402;26;20728;-89
2024/05/08 09:42:13;;;;;;;2.47;2.27;;;39.60;23.90;;;;;;5436511;26;20303;-89
2024/05/08 09:44:42;;;;;;;2.23;2.10;;;39.00;24.30;;;;;;5436180;26;20264;-90
2024/05/08 09:47:16;;;;;;;2.10;2.00;;;39.00;24.20;;;;;;5417344;26;20358;-89
2024/05/08 09:49:50;;;;;;;3.58;2.40;;;39.50;24.60;;;;;;5429896;26;20369;-89
2024/05/08 09:52:23;;;;;;;2.00;1.88;;;39.80;23.70;;;;;;5452920;26;20231;-89
2024/05/08 09:54:57;;;;;;;3.15;2.92;;;40.10;23.70;;;;;;5433481;26;20258;-89
2024/05/08 09:57:26;;;;;;;2.50;2.40;;;40.10;22.30;;;;;;5421112;26;20292;-89
2024/05/08 09:59:55;;;;;;;2.33;2.17;;;38.70;23.00;;;;;;5416624;26;20304;-88
2024/05/08 10:02:24;;;;;;;3.00;2.70;;;38.90;23.40;;;;;;5399285;26;20366;-88
2024/05/08 10:04:53;;;;;;;2.40;2.30;;;39.10;23.10;;;;;;5429612;26;20291;-89
2024/05/08 10:07:24;;;;;;;2.23;2.10;;;39.40;23.20;;;;;;5433952;26;20348;-89
2024/05/08 10:09:56;;;;;;;2.17;2.00;;;39.10;22.80;;;;;;5401205;26;20264;-89
2024/05/08 10:12:25;;;;;;;2.03;1.93;;;39.10;23.00;;;;;;5397544;26;20268;-88
2024/05/08 10:14:53;;;;;;;3.47;2.10;;;39.10;22.30;;;;;;5390916;26;20277;-88
2024/05/08 10:17:25;;;;;;;2.07;1.97;;;38.90;22.50;;;;;;5382175;26;20241;-90
2024/05/08 10:19:55;;;;;;;2.60;2.40;;;38.60;23.20;;;;;;5381775;26;21002;-88
2024/05/08 10:22:36;;;;;;;3.00;2.77;;;37.20;22.20;;;;;;5395517;26;20548;-88
2024/05/08 10:25:07;;;;;;;2.63;2.30;;;35.70;23.00;;;;;;5397848;26;20591;-89
2024/05/08 10:27:37;;;;;;;5.00;2.57;;;34.50;24.00;;;;;;5398045;26;20922;-89
2024/05/08 10:30:09;;;;;;;2.50;2.30;;;33.40;25.00;;;;;;5420599;26;21043;-89
2024/05/08 10:32:38;;;;;;;3.30;3.00;;;32.30;25.80;;;;;;5453704;26;20456;-89
2024/05/08 10:35:09;;;;;;;2.97;2.77;;;31.30;26.40;;;;;;5453750;26;20461;-89
2024/05/08 10:37:40;;;;;;;4.37;3.97;;;30.30;27.20;;;;;;5453553;26;20513;-88
2024/05/08 10:40:09;;;;;;;5.67;3.70;;;29.40;28.00;;;;;;5451844;26;20591;-89
2024/05/08 10:42:38;;;;;;;4.43;4.10;;;28.50;28.70;;;;;;5446527;26;20969;-87
2024/05/08 10:45:08;;;;;;;5.73;3.93;;;27.90;29.00;;;;;;5400620;26;20542;-89
2024/05/08 10:47:37;;;;;;;5.10;3.73;;;27.40;29.20;;;;;;5421039;26;20482;-89
2024/05/08 10:50:05;;;;;;;4.40;4.00;;;27.00;30.00;;;;;;5396055;26;20527;-89
2024/05/08 10:52:34;;;;;;;4.20;3.90;;;26.30;30.70;;;;;;5421901;26;20534;-86
2024/05/08 10:55:05;;;;;;;3.83;3.57;;;26.00;31.50;;;;;;5425235;26;21128;-89
2024/05/08 10:57:33;;;;;;;6.20;4.20;;;25.70;31.60;;;;;;5423606;26;21067;-88
2024/05/08 11:00:02;;;;;;;4.07;3.67;;;25.30;32.00;;;;;;5421475;26;20502;-88
2024/05/08 11:02:32;;;;;;;3.60;3.40;;;25.00;32.50;;;;;;5420913;26;20451;-89
2024/05/08 11:05:08;;;;;;;3.83;3.63;;;24.70;32.40;;;;;;5420325;26;20506;-88
2024/05/08 11:07:44;;;;;;;5.70;3.80;;;24.30;32.70;;;;;;5420536;26;20513;-87
2024/05/08 11:10:17;;;;;;;3.63;3.33;;;24.00;31.90;;;;;;5420662;26;20982;-88
2024/05/08 11:12:47;;;;;;;3.80;3.50;;;23.80;32.70;;;;;;5419877;26;20462;-87
2024/05/08 11:15:16;;;;;;;3.87;3.67;;;23.20;33.00;;;;;;5398010;26;20618;-86
2024/05/08 11:17:44;;;;;;;4.40;4.10;;;23.20;33.20;;;;;;5419564;26;20576;-88
2024/05/08 11:20:13;;;;;;;4.30;3.87;;;22.80;34.00;;;;;;5398091;26;20527;-87
2024/05/08 11:22:42;;;;;;;3.73;3.53;;;22.70;34.70;;;;;;5418608;26;20474;-87
2024/05/08 11:25:11;;;;;;;3.93;3.67;;;22.60;35.20;;;;;;5419763;26;20502;-87
2024/05/08 11:27:46;;;;;;;3.90;3.60;;;22.60;35.20;;;;;;5433997;26;20533;-88
2024/05/08 11:30:14;;;;;;;4.83;4.47;;;22.60;35.30;;;;;;5456034;26;20494;-88
2024/05/08 11:32:43;;;;;;;3.90;3.70;;;22.50;34.90;;;;;;5457073;26;20492;-87
2024/05/08 11:35:11;;;;;;;4.03;3.73;;;22.40;35.30;;;;;;5457312;26;20583;-88
2024/05/08 11:37:40;;;;;;;4.20;3.80;;;22.30;35.40;;;;;;5428989;26;21035;-88
2024/05/08 11:40:09;;;;;;;4.47;4.23;;;22.20;35.50;;;;;;5404275;26;20463;-88
2024/05/08 11:42:38;;;;;;;3.83;3.60;;;22.20;36.70;;;;;;5386394;26;20505;-88
2024/05/08 11:45:09;;;;;;;4.20;3.80;;;22.00;36.80;;;;;;5419859;26;20644;-88
2024/05/08 11:47:38;;;;;;;4.43;4.07;;;22.00;36.90;;;;;;5421210;26;20471;-88
2024/05/08 11:50:07;;;;;;;4.33;3.97;;;22.00;37.50;;;;;;5420665;26;20502;-87
2024/05/08 11:52:36;;;;;;;4.23;3.83;;;21.90;37.20;;;;;;5421562;26;20466;-88
2024/05/08 11:55:04;;;;;;;3.73;3.53;;;22.20;36.30;;;;;;5420929;26;20462;-87
2024/05/08 11:57:33;;;;;;;3.80;3.60;;;21.90;36.70;;;;;;5401121;26;20570;-88
2024/05/08 12:00:01;;;;;;;3.80;3.60;;;22.00;36.40;;;;;;5430187;26;20833;-87
2024/05/08 12:02:32;;;;;;;3.33;3.20;;;21.90;35.80;;;;;;5405857;26;20538;-88
2024/05/08 12:05:01;;;;;;;4.43;4.03;;;21.90;36.00;;;;;;5385380;26;20464;-87
2024/05/08 12:07:29;;;;;;;4.10;3.60;;;21.90;36.60;;;;;;5384364;26;20475;-87
2024/05/08 12:09:58;;;;;;;6.00;3.90;;;21.80;36.40;;;;;;5385117;26;20642;-88
2024/05/08 12:12:26;;;;;;;4.10;3.70;;;22.10;36.80;;;;;;5385068;26;20527;-87
2024/05/08 12:14:55;;;;;;;4.40;4.10;;;21.90;36.50;;;;;;5396599;26;20471;-88
2024/05/08 12:17:23;;;;;;;4.17;3.77;;;21.90;36.10;;;;;;5456805;26;20477;-87
2024/05/08 12:19:51;;;;;;;4.10;3.70;;;21.90;35.70;;;;;;5403731;26;20492;-87
2024/05/08 12:22:20;;;;;;;3.83;3.63;;;21.90;36.00;;;;;;5404372;26;20535;-87
2024/05/08 12:24:49;;;;;;;3.20;3.00;;;21.90;34.20;;;;;;5385470;26;20633;-88
2024/05/08 12:27:17;;;;;;;2.70;2.60;;;22.00;32.70;;;;;;5385546;26;20579;-86
2024/05/08 12:29:46;;;;;;;5.33;3.40;;;21.90;33.10;;;;;;5385332;26;20444;-87
2024/05/08 12:32:15;;;;;;;3.37;3.17;;;21.80;31.70;;;;;;5428291;26;20453;-87
2024/05/08 12:34:43;;;;;;;3.50;2.93;;;21.70;32.10;;;;;;5455395;26;20584;-87
2024/05/08 12:37:14;;;;;;;3.30;2.93;;;21.70;33.10;;;;;;5455701;26;20517;-87
2024/05/08 12:39:44;;;;;;;2.97;2.77;;;21.80;33.40;;;;;;5397097;26;20459;-88
2024/05/08 12:42:12;;;;;;;4.47;3.70;;;21.60;33.50;;;;;;5419147;26;20510;-88
2024/05/08 12:44:41;;;;;;;3.40;3.10;;;21.60;34.40;;;;;;5408208;26;21023;-87
2024/05/08 12:47:09;;;;;;;3.63;3.43;;;21.60;34.70;;;;;;5418840;26;20474;-87
2024/05/08 12:49:37;;;;;;;3.73;3.43;;;21.40;35.30;;;;;;5420629;26;20577;-86
2024/05/08 12:52:06;;;;;;;4.30;3.53;;;21.30;36.10;;;;;;5416221;26;20472;-87
2024/05/08 12:54:37;;;;;;;6.30;3.67;;;21.20;35.90;;;;;;5400793;26;20474;-87
2024/05/08 12:57:06;;;;;;;3.63;3.43;;;21.40;36.10;;;;;;5420874;26;20474;-86
2024/05/08 12:59:35;;;;;;;3.80;3.50;;;21.10;35.60;;;;;;5389404;26;20598;-87
2024/05/08 13:02:03;;;;;;;3.83;3.63;;;21.40;37.00;;;;;;5384719;26;20528;-88
2024/05/08 13:04:30;;;;;;;4.50;4.13;;;21.10;37.30;;;;;;5385581;26;21119;-87
2024/05/08 13:06:58;;;;;;;3.70;3.50;;;21.10;37.50;;;;;;5385556;26;20833;-87
2024/05/08 13:09:26;;;;;;;4.73;4.23;;;21.00;37.70;;;;;;5385453;26;20572;-86
2024/05/08 13:11:57;;;;;;;3.90;3.60;;;21.00;37.40;;;;;;5384575;26;20561;-88
2024/05/08 13:14:26;;;;;;;3.63;3.33;;;21.30;38.00;;;;;;5393755;26;20480;-88
2024/05/08 13:16:54;;;;;;;3.30;3.20;;;21.00;37.60;;;;;;5412990;26;20862;-87
2024/05/08 13:19:23;;;;;;;3.17;2.87;;;21.10;37.20;;;;;;5414425;26;20673;-88
2024/05/08 13:21:51;;;;;;;4.33;4.03;;;21.20;38.00;;;;;;5397808;26;20522;-86
2024/05/08 13:24:19;;;;;;;3.50;3.30;;;21.30;38.40;;;;;;5417085;26;20553;-86
2024/05/08 13:26:48;;;;;;;4.03;3.53;;;21.20;38.40;;;;;;5392815;26;21025;-84